sensor_id;sensor_type;location;lat;lon;timestamp;P1;durP1;ratioP1;P2;durP2;ratioP2
1715;SDS011;855;48.824;9.220;2023-08-24T00:01:13;9.80;;;5.90;;
1715;SDS011;855;48.824;9.220;2023-08-24T00:03:41;13.40;;;5.93;;
1715;SDS011;855;48.824;9.220;2023-08-24T00:06:09;8.90;;;5.90;;
1715;SDS011;855;48.824;9.220;2023-08-24T00:08:36;9.37;;;6.33;;
1715;SDS011;855;48.824;9.220;2023-08-24T00:11:05;9.83;;;5.27;;
1715;SDS011;855;48.824;9.220;2023-08-24T00:13:32;13.23;;;6.70;;
1715;SDS011;855;48.824;9.220;2023-08-24T00:15:59;7.73;;;5.03;;
1715;SDS011;855;48.824;9.220;2023-08-24T00:18:26;15.00;;;6.10;;
1715;SDS011;855;48.824;9.220;2023-08-24T00:20:53;8.83;;;5.83;;
1715;SDS011;855;48.824;9.220;2023-08-24T00:23:20;10.10;;;6.50;;
1715;SDS011;855;48.824;9.220;2023-08-24T00:25:47;13.00;;;6.73;;
1715;SDS011;855;48.824;9.220;2023-08-24T00:28:15;11.90;;;6.43;;
1715;SDS011;855;48.824;9.220;2023-08-24T00:30:42;15.07;;;7.80;;
1715;SDS011;855;48.824;9.220;2023-08-24T00:33:08;9.20;;;5.10;;
1715;SDS011;855;48.824;9.220;2023-08-24T00:35:35;9.70;;;5.70;;
1715;SDS011;855;48.824;9.220;2023-08-24T00:38:02;11.47;;;6.43;;
1715;SDS011;855;48.824;9.220;2023-08-24T00:40:29;11.50;;;6.13;;
1715;SDS011;855;48.824;9.220;2023-08-24T00:42:57;9.93;;;6.40;;
1715;SDS011;855;48.824;9.220;2023-08-24T00:45:25;12.17;;;6.90;;
1715;SDS011;855;48.824;9.220;2023-08-24T00:47:52;11.67;;;7.80;;
1715;SDS011;855;48.824;9.220;2023-08-24T00:50:19;14.10;;;6.23;;
1715;SDS011;855;48.824;9.220;2023-08-24T00:52:46;8.00;;;5.77;;
1715;SDS011;855;48.824;9.220;2023-08-24T00:55:15;13.27;;;6.70;;
1715;SDS011;855;48.824;9.220;2023-08-24T00:57:42;11.03;;;6.57;;
1715;SDS011;855;48.824;9.220;2023-08-24T01:00:10;14.33;;;6.40;;
1715;SDS011;855;48.824;9.220;2023-08-24T01:02:40;9.87;;;6.60;;
1715;SDS011;855;48.824;9.220;2023-08-24T01:05:07;13.47;;;6.60;;
1715;SDS011;855;48.824;9.220;2023-08-24T01:07:34;12.80;;;6.20;;
1715;SDS011;855;48.824;9.220;2023-08-24T01:10:05;11.23;;;7.43;;
1715;SDS011;855;48.824;9.220;2023-08-24T01:12:36;15.10;;;6.63;;
1715;SDS011;855;48.824;9.220;2023-08-24T01:15:13;11.40;;;6.27;;
1715;SDS011;855;48.824;9.220;2023-08-24T01:17:44;9.00;;;6.23;;
1715;SDS011;855;48.824;9.220;2023-08-24T01:20:13;13.90;;;6.53;;
1715;SDS011;855;48.824;9.220;2023-08-24T01:22:44;9.20;;;6.30;;
1715;SDS011;855;48.824;9.220;2023-08-24T01:25:20;12.10;;;7.00;;
1715;SDS011;855;48.824;9.220;2023-08-24T01:27:58;9.40;;;6.47;;
1715;SDS011;855;48.824;9.220;2023-08-24T01:30:28;12.37;;;7.07;;
1715;SDS011;855;48.824;9.220;2023-08-24T01:32:56;16.60;;;7.23;;
1715;SDS011;855;48.824;9.220;2023-08-24T01:35:23;11.07;;;6.50;;
1715;SDS011;855;48.824;9.220;2023-08-24T01:37:49;12.73;;;6.10;;
1715;SDS011;855;48.824;9.220;2023-08-24T01:40:17;12.97;;;7.00;;
1715;SDS011;855;48.824;9.220;2023-08-24T01:42:48;10.30;;;5.93;;
1715;SDS011;855;48.824;9.220;2023-08-24T01:45:19;10.90;;;6.50;;
1715;SDS011;855;48.824;9.220;2023-08-24T01:47:50;10.47;;;6.20;;
1715;SDS011;855;48.824;9.220;2023-08-24T01:50:20;10.10;;;6.20;;
1715;SDS011;855;48.824;9.220;2023-08-24T01:52:47;10.80;;;7.73;;
1715;SDS011;855;48.824;9.220;2023-08-24T01:55:15;15.10;;;7.23;;
1715;SDS011;855;48.824;9.220;2023-08-24T01:57:44;10.67;;;6.77;;
1715;SDS011;855;48.824;9.220;2023-08-24T02:00:11;10.97;;;6.63;;
1715;SDS011;855;48.824;9.220;2023-08-24T02:02:39;22.60;;;7.70;;
1715;SDS011;855;48.824;9.220;2023-08-24T02:05:07;12.23;;;6.73;;
1715;SDS011;855;48.824;9.220;2023-08-24T02:07:34;14.03;;;6.87;;
1715;SDS011;855;48.824;9.220;2023-08-24T02:10:01;12.53;;;7.00;;
1715;SDS011;855;48.824;9.220;2023-08-24T02:12:28;13.27;;;6.60;;
1715;SDS011;855;48.824;9.220;2023-08-24T02:14:55;9.60;;;6.60;;
1715;SDS011;855;48.824;9.220;2023-08-24T02:17:22;10.77;;;6.13;;
1715;SDS011;855;48.824;9.220;2023-08-24T02:19:50;14.00;;;7.07;;
1715;SDS011;855;48.824;9.220;2023-08-24T02:22:17;9.70;;;6.70;;
1715;SDS011;855;48.824;9.220;2023-08-24T02:24:44;10.83;;;5.40;;
1715;SDS011;855;48.824;9.220;2023-08-24T02:27:11;12.23;;;6.67;;
1715;SDS011;855;48.824;9.220;2023-08-24T02:29:39;14.43;;;7.03;;
1715;SDS011;855;48.824;9.220;2023-08-24T02:32:05;10.83;;;6.20;;
1715;SDS011;855;48.824;9.220;2023-08-24T02:34:32;10.40;;;5.90;;
1715;SDS011;855;48.824;9.220;2023-08-24T02:37:00;13.20;;;6.40;;
1715;SDS011;855;48.824;9.220;2023-08-24T02:39:27;10.17;;;7.03;;
1715;SDS011;855;48.824;9.220;2023-08-24T02:41:54;11.10;;;6.20;;
1715;SDS011;855;48.824;9.220;2023-08-24T02:44:21;11.00;;;6.33;;
1715;SDS011;855;48.824;9.220;2023-08-24T02:46:47;14.30;;;7.17;;
1715;SDS011;855;48.824;9.220;2023-08-24T02:49:15;13.00;;;6.80;;
1715;SDS011;855;48.824;9.220;2023-08-24T02:51:41;12.97;;;7.87;;
1715;SDS011;855;48.824;9.220;2023-08-24T02:54:10;10.30;;;6.57;;
1715;SDS011;855;48.824;9.220;2023-08-24T02:56:36;13.60;;;6.97;;
1715;SDS011;855;48.824;9.220;2023-08-24T02:59:03;12.23;;;6.53;;
1715;SDS011;855;48.824;9.220;2023-08-24T03:01:30;11.60;;;6.53;;
1715;SDS011;855;48.824;9.220;2023-08-24T03:03:57;16.10;;;6.80;;
1715;SDS011;855;48.824;9.220;2023-08-24T03:06:24;10.10;;;5.80;;
1715;SDS011;855;48.824;9.220;2023-08-24T03:08:51;9.33;;;5.70;;
1715;SDS011;855;48.824;9.220;2023-08-24T03:11:19;8.37;;;5.70;;
1715;SDS011;855;48.824;9.220;2023-08-24T03:13:46;8.80;;;6.00;;
1715;SDS011;855;48.824;9.220;2023-08-24T03:16:12;12.03;;;6.27;;
1715;SDS011;855;48.824;9.220;2023-08-24T03:18:39;9.97;;;6.70;;
1715;SDS011;855;48.824;9.220;2023-08-24T03:21:06;17.43;;;8.23;;
1715;SDS011;855;48.824;9.220;2023-08-24T03:23:33;22.03;;;7.30;;
1715;SDS011;855;48.824;9.220;2023-08-24T03:26:00;10.97;;;6.97;;
1715;SDS011;855;48.824;9.220;2023-08-24T03:28:30;11.30;;;7.23;;
1715;SDS011;855;48.824;9.220;2023-08-24T03:30:56;12.90;;;6.17;;
1715;SDS011;855;48.824;9.220;2023-08-24T03:33:23;8.33;;;5.77;;
1715;SDS011;855;48.824;9.220;2023-08-24T03:35:51;23.23;;;8.97;;
1715;SDS011;855;48.824;9.220;2023-08-24T03:38:18;12.70;;;6.80;;
1715;SDS011;855;48.824;9.220;2023-08-24T03:40:45;17.07;;;7.50;;
1715;SDS011;855;48.824;9.220;2023-08-24T03:43:12;11.73;;;6.37;;
1715;SDS011;855;48.824;9.220;2023-08-24T03:45:40;13.17;;;6.83;;
1715;SDS011;855;48.824;9.220;2023-08-24T03:48:08;18.03;;;6.50;;
1715;SDS011;855;48.824;9.220;2023-08-24T03:50:35;12.57;;;6.73;;
1715;SDS011;855;48.824;9.220;2023-08-24T03:53:02;9.30;;;6.23;;
1715;SDS011;855;48.824;9.220;2023-08-24T03:55:29;9.73;;;5.93;;
1715;SDS011;855;48.824;9.220;2023-08-24T03:57:58;9.17;;;6.30;;
1715;SDS011;855;48.824;9.220;2023-08-24T04:00:24;11.00;;;6.70;;
1715;SDS011;855;48.824;9.220;2023-08-24T04:02:53;11.40;;;6.27;;
1715;SDS011;855;48.824;9.220;2023-08-24T04:05:19;12.20;;;6.90;;
1715;SDS011;855;48.824;9.220;2023-08-24T04:07:46;13.90;;;7.47;;
1715;SDS011;855;48.824;9.220;2023-08-24T04:10:13;10.33;;;6.50;;
1715;SDS011;855;48.824;9.220;2023-08-24T04:12:40;11.93;;;6.73;;
1715;SDS011;855;48.824;9.220;2023-08-24T04:15:07;10.30;;;6.43;;
1715;SDS011;855;48.824;9.220;2023-08-24T04:17:35;18.53;;;7.13;;
1715;SDS011;855;48.824;9.220;2023-08-24T04:20:03;15.63;;;7.90;;
1715;SDS011;855;48.824;9.220;2023-08-24T04:22:31;9.60;;;7.00;;
1715;SDS011;855;48.824;9.220;2023-08-24T04:24:58;13.00;;;6.70;;
1715;SDS011;855;48.824;9.220;2023-08-24T04:27:25;13.40;;;7.00;;
1715;SDS011;855;48.824;9.220;2023-08-24T04:29:52;12.20;;;7.10;;
1715;SDS011;855;48.824;9.220;2023-08-24T04:32:18;9.77;;;6.13;;
1715;SDS011;855;48.824;9.220;2023-08-24T04:34:45;10.10;;;6.47;;
1715;SDS011;855;48.824;9.220;2023-08-24T04:37:13;8.63;;;6.23;;
1715;SDS011;855;48.824;9.220;2023-08-24T04:39:40;8.67;;;6.43;;
1715;SDS011;855;48.824;9.220;2023-08-24T04:42:07;14.27;;;7.00;;
1715;SDS011;855;48.824;9.220;2023-08-24T04:44:34;8.87;;;5.93;;
1715;SDS011;855;48.824;9.220;2023-08-24T04:47:00;10.47;;;6.53;;
1715;SDS011;855;48.824;9.220;2023-08-24T04:49:27;10.83;;;6.63;;
1715;SDS011;855;48.824;9.220;2023-08-24T04:51:56;9.60;;;6.60;;
1715;SDS011;855;48.824;9.220;2023-08-24T04:54:24;11.33;;;6.70;;
1715;SDS011;855;48.824;9.220;2023-08-24T04:56:51;12.03;;;6.27;;
1715;SDS011;855;48.824;9.220;2023-08-24T04:59:17;10.90;;;6.80;;
1715;SDS011;855;48.824;9.220;2023-08-24T05:01:44;11.13;;;6.70;;
1715;SDS011;855;48.824;9.220;2023-08-24T05:04:11;10.20;;;5.97;;
1715;SDS011;855;48.824;9.220;2023-08-24T05:06:38;13.40;;;6.50;;
1715;SDS011;855;48.824;9.220;2023-08-24T05:09:05;12.37;;;7.10;;
1715;SDS011;855;48.824;9.220;2023-08-24T05:11:33;11.67;;;7.07;;
1715;SDS011;855;48.824;9.220;2023-08-24T05:14:01;11.27;;;6.60;;
1715;SDS011;855;48.824;9.220;2023-08-24T05:16:28;11.30;;;6.93;;
1715;SDS011;855;48.824;9.220;2023-08-24T05:18:55;10.67;;;5.87;;
1715;SDS011;855;48.824;9.220;2023-08-24T05:21:22;10.20;;;5.50;;
1715;SDS011;855;48.824;9.220;2023-08-24T05:23:49;7.10;;;5.37;;
1715;SDS011;855;48.824;9.220;2023-08-24T05:26:15;11.10;;;6.30;;
1715;SDS011;855;48.824;9.220;2023-08-24T05:28:48;10.80;;;5.93;;
1715;SDS011;855;48.824;9.220;2023-08-24T05:31:15;11.47;;;6.47;;
1715;SDS011;855;48.824;9.220;2023-08-24T05:33:42;13.23;;;6.40;;
1715;SDS011;855;48.824;9.220;2023-08-24T05:36:09;8.57;;;5.97;;
1715;SDS011;855;48.824;9.220;2023-08-24T05:38:36;24.90;;;7.53;;
1715;SDS011;855;48.824;9.220;2023-08-24T05:41:03;13.13;;;7.17;;
1715;SDS011;855;48.824;9.220;2023-08-24T05:43:30;14.63;;;6.00;;
1715;SDS011;855;48.824;9.220;2023-08-24T05:45:58;15.73;;;6.57;;
1715;SDS011;855;48.824;9.220;2023-08-24T05:48:25;9.03;;;5.93;;
1715;SDS011;855;48.824;9.220;2023-08-24T05:50:51;9.67;;;5.83;;
1715;SDS011;855;48.824;9.220;2023-08-24T05:53:18;12.97;;;7.03;;
1715;SDS011;855;48.824;9.220;2023-08-24T05:55:45;9.30;;;6.00;;
1715;SDS011;855;48.824;9.220;2023-08-24T05:58:12;16.33;;;6.30;;
1715;SDS011;855;48.824;9.220;2023-08-24T06:00:39;13.73;;;7.27;;
1715;SDS011;855;48.824;9.220;2023-08-24T06:03:07;13.17;;;5.67;;
1715;SDS011;855;48.824;9.220;2023-08-24T06:05:34;11.83;;;6.53;;
1715;SDS011;855;48.824;9.220;2023-08-24T06:08:01;10.13;;;5.67;;
1715;SDS011;855;48.824;9.220;2023-08-24T06:10:28;14.97;;;6.47;;
1715;SDS011;855;48.824;9.220;2023-08-24T06:12:56;10.13;;;6.83;;
1715;SDS011;855;48.824;9.220;2023-08-24T06:15:22;9.77;;;7.17;;
1715;SDS011;855;48.824;9.220;2023-08-24T06:17:53;9.50;;;5.63;;
1715;SDS011;855;48.824;9.220;2023-08-24T06:20:21;12.67;;;7.13;;
1715;SDS011;855;48.824;9.220;2023-08-24T06:22:47;10.90;;;6.23;;
1715;SDS011;855;48.824;9.220;2023-08-24T06:25:15;8.37;;;5.80;;
1715;SDS011;855;48.824;9.220;2023-08-24T06:27:42;11.30;;;5.17;;
1715;SDS011;855;48.824;9.220;2023-08-24T06:30:09;12.60;;;6.10;;
1715;SDS011;855;48.824;9.220;2023-08-24T06:32:36;12.20;;;6.40;;
1715;SDS011;855;48.824;9.220;2023-08-24T06:35:03;9.50;;;6.20;;
1715;SDS011;855;48.824;9.220;2023-08-24T06:37:33;11.00;;;6.63;;
1715;SDS011;855;48.824;9.220;2023-08-24T06:39:59;8.27;;;6.17;;
1715;SDS011;855;48.824;9.220;2023-08-24T06:42:27;9.37;;;5.23;;
1715;SDS011;855;48.824;9.220;2023-08-24T06:44:54;11.00;;;6.00;;
1715;SDS011;855;48.824;9.220;2023-08-24T06:47:21;10.70;;;6.13;;
1715;SDS011;855;48.824;9.220;2023-08-24T06:49:48;10.23;;;6.07;;
1715;SDS011;855;48.824;9.220;2023-08-24T06:52:16;11.97;;;7.80;;
1715;SDS011;855;48.824;9.220;2023-08-24T06:54:44;15.53;;;6.10;;
1715;SDS011;855;48.824;9.220;2023-08-24T06:57:13;8.50;;;5.87;;
1715;SDS011;855;48.824;9.220;2023-08-24T06:59:40;16.13;;;7.33;;
1715;SDS011;855;48.824;9.220;2023-08-24T07:02:07;11.70;;;6.47;;
1715;SDS011;855;48.824;9.220;2023-08-24T07:04:34;12.83;;;6.80;;
1715;SDS011;855;48.824;9.220;2023-08-24T07:07:02;12.43;;;6.10;;
1715;SDS011;855;48.824;9.220;2023-08-24T07:09:28;9.20;;;5.30;;
1715;SDS011;855;48.824;9.220;2023-08-24T07:11:57;13.83;;;5.70;;
1715;SDS011;855;48.824;9.220;2023-08-24T07:14:23;9.67;;;5.23;;
1715;SDS011;855;48.824;9.220;2023-08-24T07:16:50;11.40;;;5.33;;
1715;SDS011;855;48.824;9.220;2023-08-24T07:19:17;8.93;;;5.07;;
1715;SDS011;855;48.824;9.220;2023-08-24T07:21:44;9.67;;;5.20;;
1715;SDS011;855;48.824;9.220;2023-08-24T07:24:10;9.67;;;5.00;;
1715;SDS011;855;48.824;9.220;2023-08-24T07:26:37;9.83;;;5.30;;
1715;SDS011;855;48.824;9.220;2023-08-24T07:29:07;4.73;;;4.33;;
1715;SDS011;855;48.824;9.220;2023-08-24T07:31:34;8.20;;;4.93;;
1715;SDS011;855;48.824;9.220;2023-08-24T07:34:01;9.33;;;5.30;;
1715;SDS011;855;48.824;9.220;2023-08-24T07:36:28;7.50;;;5.00;;
1715;SDS011;855;48.824;9.220;2023-08-24T07:38:55;7.03;;;4.73;;
1715;SDS011;855;48.824;9.220;2023-08-24T07:41:22;8.67;;;5.10;;
1715;SDS011;855;48.824;9.220;2023-08-24T07:43:49;10.53;;;5.60;;
1715;SDS011;855;48.824;9.220;2023-08-24T07:46:17;8.50;;;5.20;;
1715;SDS011;855;48.824;9.220;2023-08-24T07:48:44;8.30;;;4.40;;
1715;SDS011;855;48.824;9.220;2023-08-24T07:51:11;9.33;;;4.70;;
1715;SDS011;855;48.824;9.220;2023-08-24T07:53:38;6.30;;;3.77;;
1715;SDS011;855;48.824;9.220;2023-08-24T07:56:05;8.63;;;3.87;;
1715;SDS011;855;48.824;9.220;2023-08-24T07:58:32;9.50;;;4.50;;
1715;SDS011;855;48.824;9.220;2023-08-24T08:00:58;6.93;;;4.20;;
1715;SDS011;855;48.824;9.220;2023-08-24T08:03:27;10.17;;;4.70;;
1715;SDS011;855;48.824;9.220;2023-08-24T08:05:55;6.63;;;3.37;;
1715;SDS011;855;48.824;9.220;2023-08-24T08:08:23;7.97;;;4.07;;
1715;SDS011;855;48.824;9.220;2023-08-24T08:10:57;7.33;;;4.17;;
1715;SDS011;855;48.824;9.220;2023-08-24T08:13:25;7.37;;;4.33;;
1715;SDS011;855;48.824;9.220;2023-08-24T08:15:52;6.77;;;3.77;;
1715;SDS011;855;48.824;9.220;2023-08-24T08:18:19;7.37;;;4.50;;
1715;SDS011;855;48.824;9.220;2023-08-24T08:20:51;11.80;;;5.40;;
1715;SDS011;855;48.824;9.220;2023-08-24T08:23:18;6.87;;;4.53;;
1715;SDS011;855;48.824;9.220;2023-08-24T08:25:45;5.13;;;3.90;;
1715;SDS011;855;48.824;9.220;2023-08-24T08:28:12;7.73;;;4.37;;
1715;SDS011;855;48.824;9.220;2023-08-24T08:30:38;8.20;;;5.00;;
1715;SDS011;855;48.824;9.220;2023-08-24T08:33:05;8.73;;;3.70;;
1715;SDS011;855;48.824;9.220;2023-08-24T08:35:32;8.50;;;4.33;;
1715;SDS011;855;48.824;9.220;2023-08-24T08:38:00;5.53;;;3.73;;
1715;SDS011;855;48.824;9.220;2023-08-24T08:40:27;5.63;;;4.00;;
1715;SDS011;855;48.824;9.220;2023-08-24T08:42:56;6.37;;;3.53;;
1715;SDS011;855;48.824;9.220;2023-08-24T08:45:24;10.67;;;4.20;;
1715;SDS011;855;48.824;9.220;2023-08-24T08:47:52;4.73;;;3.40;;
1715;SDS011;855;48.824;9.220;2023-08-24T08:50:22;5.03;;;3.70;;
1715;SDS011;855;48.824;9.220;2023-08-24T08:52:49;9.40;;;4.20;;
1715;SDS011;855;48.824;9.220;2023-08-24T08:55:17;8.40;;;4.40;;
1715;SDS011;855;48.824;9.220;2023-08-24T08:57:45;7.43;;;4.83;;
1715;SDS011;855;48.824;9.220;2023-08-24T09:00:14;6.87;;;4.20;;
1715;SDS011;855;48.824;9.220;2023-08-24T09:02:42;6.17;;;4.33;;
1715;SDS011;855;48.824;9.220;2023-08-24T09:05:10;7.80;;;4.40;;
1715;SDS011;855;48.824;9.220;2023-08-24T09:07:39;8.17;;;4.40;;
1715;SDS011;855;48.824;9.220;2023-08-24T09:10:06;5.07;;;4.20;;
1715;SDS011;855;48.824;9.220;2023-08-24T09:12:35;8.50;;;4.47;;
1715;SDS011;855;48.824;9.220;2023-08-24T09:15:02;8.13;;;4.10;;
1715;SDS011;855;48.824;9.220;2023-08-24T09:17:31;5.20;;;4.07;;
1715;SDS011;855;48.824;9.220;2023-08-24T09:19:58;9.17;;;4.37;;
1715;SDS011;855;48.824;9.220;2023-08-24T09:22:26;6.30;;;3.93;;
1715;SDS011;855;48.824;9.220;2023-08-24T09:24:53;5.77;;;3.57;;
1715;SDS011;855;48.824;9.220;2023-08-24T09:27:21;12.03;;;4.07;;
1715;SDS011;855;48.824;9.220;2023-08-24T09:29:50;8.03;;;4.30;;
1715;SDS011;855;48.824;9.220;2023-08-24T09:32:21;6.87;;;4.37;;
1715;SDS011;855;48.824;9.220;2023-08-24T09:34:48;4.70;;;3.40;;
1715;SDS011;855;48.824;9.220;2023-08-24T09:37:16;7.10;;;4.00;;
1715;SDS011;855;48.824;9.220;2023-08-24T09:39:43;10.03;;;4.33;;
1715;SDS011;855;48.824;9.220;2023-08-24T09:42:11;6.77;;;3.97;;
1715;SDS011;855;48.824;9.220;2023-08-24T09:44:42;9.60;;;4.00;;
1715;SDS011;855;48.824;9.220;2023-08-24T09:47:12;7.37;;;3.83;;
1715;SDS011;855;48.824;9.220;2023-08-24T09:49:38;9.67;;;3.77;;
1715;SDS011;855;48.824;9.220;2023-08-24T09:52:06;6.90;;;4.20;;
1715;SDS011;855;48.824;9.220;2023-08-24T09:54:36;7.03;;;3.73;;
1715;SDS011;855;48.824;9.220;2023-08-24T09:57:04;5.80;;;3.87;;
1715;SDS011;855;48.824;9.220;2023-08-24T09:59:34;6.10;;;4.20;;
1715;SDS011;855;48.824;9.220;2023-08-24T10:02:03;5.57;;;3.70;;
1715;SDS011;855;48.824;9.220;2023-08-24T10:04:41;3.47;;;3.20;;
1715;SDS011;855;48.824;9.220;2023-08-24T10:07:10;8.07;;;4.30;;
1715;SDS011;855;48.824;9.220;2023-08-24T10:09:43;5.97;;;4.73;;
1715;SDS011;855;48.824;9.220;2023-08-24T10:12:13;5.90;;;4.17;;
1715;SDS011;855;48.824;9.220;2023-08-24T10:14:47;12.43;;;3.77;;
1715;SDS011;855;48.824;9.220;2023-08-24T10:17:24;10.37;;;4.43;;
1715;SDS011;855;48.824;9.220;2023-08-24T10:19:52;5.77;;;4.30;;
1715;SDS011;855;48.824;9.220;2023-08-24T10:22:20;7.13;;;3.83;;
1715;SDS011;855;48.824;9.220;2023-08-24T10:24:47;7.00;;;4.50;;
1715;SDS011;855;48.824;9.220;2023-08-24T10:27:16;7.00;;;4.40;;
1715;SDS011;855;48.824;9.220;2023-08-24T10:29:44;5.87;;;4.80;;
1715;SDS011;855;48.824;9.220;2023-08-24T10:32:10;6.90;;;4.97;;
1715;SDS011;855;48.824;9.220;2023-08-24T10:34:39;7.80;;;5.03;;
1715;SDS011;855;48.824;9.220;2023-08-24T10:37:07;6.57;;;3.93;;
1715;SDS011;855;48.824;9.220;2023-08-24T10:39:35;4.33;;;3.47;;
1715;SDS011;855;48.824;9.220;2023-08-24T10:42:04;6.37;;;4.57;;
1715;SDS011;855;48.824;9.220;2023-08-24T10:44:36;6.40;;;4.30;;
1715;SDS011;855;48.824;9.220;2023-08-24T10:47:08;6.20;;;3.90;;
1715;SDS011;855;48.824;9.220;2023-08-24T10:49:40;7.13;;;4.30;;
1715;SDS011;855;48.824;9.220;2023-08-24T10:52:16;4.87;;;3.90;;
1715;SDS011;855;48.824;9.220;2023-08-24T10:54:44;8.13;;;4.93;;
1715;SDS011;855;48.824;9.220;2023-08-24T10:57:20;6.03;;;4.20;;
1715;SDS011;855;48.824;9.220;2023-08-24T10:59:58;9.50;;;5.50;;
1715;SDS011;855;48.824;9.220;2023-08-24T11:02:25;5.07;;;3.90;;
1715;SDS011;855;48.824;9.220;2023-08-24T11:05:07;7.97;;;3.80;;
1715;SDS011;855;48.824;9.220;2023-08-24T11:07:47;11.60;;;4.10;;
1715;SDS011;855;48.824;9.220;2023-08-24T11:10:19;7.70;;;4.40;;
1715;SDS011;855;48.824;9.220;2023-08-24T11:13:08;5.53;;;4.20;;
1715;SDS011;855;48.824;9.220;2023-08-24T11:15:37;7.40;;;4.40;;
1715;SDS011;855;48.824;9.220;2023-08-24T11:18:12;6.00;;;4.60;;
1715;SDS011;855;48.824;9.220;2023-08-24T11:20:43;7.97;;;4.30;;
1715;SDS011;855;48.824;9.220;2023-08-24T11:23:10;8.47;;;4.60;;
1715;SDS011;855;48.824;9.220;2023-08-24T11:25:38;13.93;;;4.57;;
1715;SDS011;855;48.824;9.220;2023-08-24T11:28:05;6.00;;;4.13;;
1715;SDS011;855;48.824;9.220;2023-08-24T11:30:32;7.80;;;4.83;;
1715;SDS011;855;48.824;9.220;2023-08-24T11:32:59;4.47;;;4.10;;
1715;SDS011;855;48.824;9.220;2023-08-24T11:35:27;6.30;;;3.73;;
1715;SDS011;855;48.824;9.220;2023-08-24T11:37:55;8.57;;;4.40;;
1715;SDS011;855;48.824;9.220;2023-08-24T11:40:23;13.47;;;4.90;;
1715;SDS011;855;48.824;9.220;2023-08-24T11:42:53;32.33;;;5.10;;
1715;SDS011;855;48.824;9.220;2023-08-24T11:45:20;6.90;;;4.17;;
1715;SDS011;855;48.824;9.220;2023-08-24T11:47:47;6.20;;;4.37;;
1715;SDS011;855;48.824;9.220;2023-08-24T11:50:15;7.80;;;4.77;;
1715;SDS011;855;48.824;9.220;2023-08-24T11:52:42;7.20;;;4.50;;
1715;SDS011;855;48.824;9.220;2023-08-24T11:55:11;7.37;;;5.03;;
1715;SDS011;855;48.824;9.220;2023-08-24T11:57:38;7.07;;;4.60;;
1715;SDS011;855;48.824;9.220;2023-08-24T12:00:05;6.70;;;4.07;;
1715;SDS011;855;48.824;9.220;2023-08-24T12:02:34;6.00;;;4.20;;
1715;SDS011;855;48.824;9.220;2023-08-24T12:05:01;6.67;;;4.70;;
1715;SDS011;855;48.824;9.220;2023-08-24T12:07:32;7.23;;;4.50;;
1715;SDS011;855;48.824;9.220;2023-08-24T12:10:00;6.70;;;4.70;;
1715;SDS011;855;48.824;9.220;2023-08-24T12:12:28;5.70;;;4.23;;
1715;SDS011;855;48.824;9.220;2023-08-24T12:14:55;6.83;;;4.40;;
1715;SDS011;855;48.824;9.220;2023-08-24T12:17:23;10.07;;;4.70;;
1715;SDS011;855;48.824;9.220;2023-08-24T12:19:56;9.27;;;5.10;;
1715;SDS011;855;48.824;9.220;2023-08-24T12:22:24;8.20;;;4.93;;
1715;SDS011;855;48.824;9.220;2023-08-24T12:24:51;7.27;;;4.67;;
1715;SDS011;855;48.824;9.220;2023-08-24T12:27:18;6.30;;;4.20;;
1715;SDS011;855;48.824;9.220;2023-08-24T12:29:46;8.43;;;5.13;;
1715;SDS011;855;48.824;9.220;2023-08-24T12:32:13;7.47;;;4.30;;
1715;SDS011;855;48.824;9.220;2023-08-24T12:34:41;8.43;;;4.07;;
1715;SDS011;855;48.824;9.220;2023-08-24T12:37:09;6.33;;;4.67;;
1715;SDS011;855;48.824;9.220;2023-08-24T12:39:36;8.77;;;4.90;;
1715;SDS011;855;48.824;9.220;2023-08-24T12:42:03;7.13;;;4.03;;
1715;SDS011;855;48.824;9.220;2023-08-24T12:44:30;7.57;;;4.90;;
1715;SDS011;855;48.824;9.220;2023-08-24T12:46:58;7.60;;;4.13;;
1715;SDS011;855;48.824;9.220;2023-08-24T12:49:25;24.93;;;5.20;;
1715;SDS011;855;48.824;9.220;2023-08-24T12:51:52;7.97;;;4.43;;
1715;SDS011;855;48.824;9.220;2023-08-24T12:54:19;14.60;;;4.50;;
1715;SDS011;855;48.824;9.220;2023-08-24T12:56:46;12.70;;;4.10;;
1715;SDS011;855;48.824;9.220;2023-08-24T12:59:13;7.43;;;4.03;;
1715;SDS011;855;48.824;9.220;2023-08-24T13:01:39;8.30;;;3.87;;
1715;SDS011;855;48.824;9.220;2023-08-24T13:04:08;12.00;;;3.83;;
1715;SDS011;855;48.824;9.220;2023-08-24T13:06:35;14.90;;;4.50;;
1715;SDS011;855;48.824;9.220;2023-08-24T13:09:02;10.60;;;5.20;;
1715;SDS011;855;48.824;9.220;2023-08-24T13:11:30;7.00;;;3.40;;
1715;SDS011;855;48.824;9.220;2023-08-24T13:13:57;9.83;;;4.70;;
1715;SDS011;855;48.824;9.220;2023-08-24T13:16:24;5.93;;;3.90;;
1715;SDS011;855;48.824;9.220;2023-08-24T13:18:52;7.37;;;4.30;;
1715;SDS011;855;48.824;9.220;2023-08-24T13:21:21;20.77;;;4.77;;
1715;SDS011;855;48.824;9.220;2023-08-24T13:23:48;14.97;;;4.33;;
1715;SDS011;855;48.824;9.220;2023-08-24T13:26:18;4.20;;;3.30;;
1715;SDS011;855;48.824;9.220;2023-08-24T13:28:45;7.33;;;3.87;;
1715;SDS011;855;48.824;9.220;2023-08-24T13:31:12;8.33;;;4.33;;
1715;SDS011;855;48.824;9.220;2023-08-24T13:33:39;9.00;;;4.47;;
1715;SDS011;855;48.824;9.220;2023-08-24T13:36:06;13.50;;;4.50;;
1715;SDS011;855;48.824;9.220;2023-08-24T13:38:34;8.90;;;4.77;;
1715;SDS011;855;48.824;9.220;2023-08-24T13:41:01;11.70;;;3.80;;
1715;SDS011;855;48.824;9.220;2023-08-24T13:43:29;7.30;;;4.13;;
1715;SDS011;855;48.824;9.220;2023-08-24T13:45:55;6.83;;;4.40;;
1715;SDS011;855;48.824;9.220;2023-08-24T13:48:22;5.97;;;4.20;;
1715;SDS011;855;48.824;9.220;2023-08-24T13:50:50;7.10;;;3.80;;
1715;SDS011;855;48.824;9.220;2023-08-24T13:53:17;9.77;;;4.47;;
1715;SDS011;855;48.824;9.220;2023-08-24T13:55:45;6.33;;;4.40;;
1715;SDS011;855;48.824;9.220;2023-08-24T13:58:12;7.87;;;4.23;;
1715;SDS011;855;48.824;9.220;2023-08-24T14:00:39;6.10;;;3.43;;
1715;SDS011;855;48.824;9.220;2023-08-24T14:03:06;8.47;;;3.60;;
1715;SDS011;855;48.824;9.220;2023-08-24T14:05:38;9.80;;;4.37;;
1715;SDS011;855;48.824;9.220;2023-08-24T14:08:05;8.40;;;4.37;;
1715;SDS011;855;48.824;9.220;2023-08-24T14:10:33;8.03;;;4.00;;
1715;SDS011;855;48.824;9.220;2023-08-24T14:13:01;18.00;;;5.47;;
1715;SDS011;855;48.824;9.220;2023-08-24T14:15:28;11.47;;;4.10;;
1715;SDS011;855;48.824;9.220;2023-08-24T14:17:55;6.10;;;3.80;;
1715;SDS011;855;48.824;9.220;2023-08-24T14:20:21;6.57;;;4.20;;
1715;SDS011;855;48.824;9.220;2023-08-24T14:22:49;10.70;;;3.53;;
1715;SDS011;855;48.824;9.220;2023-08-24T14:25:16;8.60;;;3.50;;
1715;SDS011;855;48.824;9.220;2023-08-24T14:27:43;6.40;;;5.00;;
1715;SDS011;855;48.824;9.220;2023-08-24T14:30:11;10.80;;;3.90;;
1715;SDS011;855;48.824;9.220;2023-08-24T14:32:39;8.80;;;3.80;;
1715;SDS011;855;48.824;9.220;2023-08-24T14:35:06;8.70;;;3.30;;
1715;SDS011;855;48.824;9.220;2023-08-24T14:37:34;4.40;;;3.33;;
1715;SDS011;855;48.824;9.220;2023-08-24T14:40:01;9.67;;;3.80;;
1715;SDS011;855;48.824;9.220;2023-08-24T14:42:29;6.90;;;3.77;;
1715;SDS011;855;48.824;9.220;2023-08-24T14:44:56;4.67;;;3.60;;
1715;SDS011;855;48.824;9.220;2023-08-24T14:47:24;9.83;;;3.90;;
1715;SDS011;855;48.824;9.220;2023-08-24T14:49:51;6.70;;;3.70;;
1715;SDS011;855;48.824;9.220;2023-08-24T14:52:18;9.10;;;3.67;;
1715;SDS011;855;48.824;9.220;2023-08-24T14:54:44;7.93;;;3.90;;
1715;SDS011;855;48.824;9.220;2023-08-24T14:57:11;7.43;;;4.00;;
1715;SDS011;855;48.824;9.220;2023-08-24T14:59:38;4.63;;;2.57;;
1715;SDS011;855;48.824;9.220;2023-08-24T15:02:05;25.33;;;4.37;;
1715;SDS011;855;48.824;9.220;2023-08-24T15:04:33;13.37;;;3.57;;
1715;SDS011;855;48.824;9.220;2023-08-24T15:07:00;8.20;;;3.90;;
1715;SDS011;855;48.824;9.220;2023-08-24T15:09:27;5.90;;;4.07;;
1715;SDS011;855;48.824;9.220;2023-08-24T15:11:54;9.30;;;3.00;;
1715;SDS011;855;48.824;9.220;2023-08-24T15:14:21;18.37;;;4.63;;
1715;SDS011;855;48.824;9.220;2023-08-24T15:16:48;12.30;;;4.23;;
1715;SDS011;855;48.824;9.220;2023-08-24T15:19:14;8.20;;;3.97;;
1715;SDS011;855;48.824;9.220;2023-08-24T15:21:42;7.20;;;5.17;;
1715;SDS011;855;48.824;9.220;2023-08-24T15:24:09;5.63;;;3.83;;
1715;SDS011;855;48.824;9.220;2023-08-24T15:26:36;9.30;;;4.90;;
1715;SDS011;855;48.824;9.220;2023-08-24T15:29:06;9.40;;;3.80;;